sensor_id;sensor_type;location;lat;lon;timestamp;P1;durP1;ratioP1;P2;durP2;ratioP2
5058;SDS011;2548;52.050;11.036;2023-03-20T00:00:44;2.22;;;2.13;;
5058;SDS011;2548;52.050;11.036;2023-03-20T00:03:13;2.80;;;2.70;;
5058;SDS011;2548;52.050;11.036;2023-03-20T00:05:40;2.60;;;2.50;;
5058;SDS011;2548;52.050;11.036;2023-03-20T00:08:08;2.40;;;2.30;;
5058;SDS011;2548;52.050;11.036;2023-03-20T00:10:37;2.10;;;1.95;;
5058;SDS011;2548;52.050;11.036;2023-03-20T00:13:09;1.98;;;1.88;;
5058;SDS011;2548;52.050;11.036;2023-03-20T00:15:42;2.30;;;2.20;;
5058;SDS011;2548;52.050;11.036;2023-03-20T00:18:11;3.17;;;1.70;;
5058;SDS011;2548;52.050;11.036;2023-03-20T00:20:43;2.38;;;2.17;;
5058;SDS011;2548;52.050;11.036;2023-03-20T00:23:11;2.00;;;1.90;;
5058;SDS011;2548;52.050;11.036;2023-03-20T00:25:39;4.82;;;2.20;;
5058;SDS011;2548;52.050;11.036;2023-03-20T00:28:27;2.80;;;2.70;;
5058;SDS011;2548;52.050;11.036;2023-03-20T00:31:04;2.53;;;2.33;;
5058;SDS011;2548;52.050;11.036;2023-03-20T00:33:32;2.40;;;2.30;;
5058;SDS011;2548;52.050;11.036;2023-03-20T00:35:59;2.75;;;2.65;;
5058;SDS011;2548;52.050;11.036;2023-03-20T00:38:27;4.20;;;3.25;;
5058;SDS011;2548;52.050;11.036;2023-03-20T00:40:54;2.95;;;2.75;;
5058;SDS011;2548;52.050;11.036;2023-03-20T00:43:22;3.13;;;2.80;;
5058;SDS011;2548;52.050;11.036;2023-03-20T00:45:51;3.13;;;3.00;;
5058;SDS011;2548;52.050;11.036;2023-03-20T00:48:20;3.45;;;3.25;;
5058;SDS011;2548;52.050;11.036;2023-03-20T00:50:48;4.57;;;4.15;;
5058;SDS011;2548;52.050;11.036;2023-03-20T00:53:16;3.35;;;3.17;;
5058;SDS011;2548;52.050;11.036;2023-03-20T00:55:43;3.05;;;2.90;;
5058;SDS011;2548;52.050;11.036;2023-03-20T00:58:11;3.08;;;2.97;;
5058;SDS011;2548;52.050;11.036;2023-03-20T01:00:39;3.35;;;3.15;;
5058;SDS011;2548;52.050;11.036;2023-03-20T01:03:13;3.58;;;3.38;;
5058;SDS011;2548;52.050;11.036;2023-03-20T01:05:44;3.47;;;3.25;;
5058;SDS011;2548;52.050;11.036;2023-03-20T01:08:13;3.00;;;2.80;;
5058;SDS011;2548;52.050;11.036;2023-03-20T01:10:42;3.60;;;3.40;;
5058;SDS011;2548;52.050;11.036;2023-03-20T01:13:18;3.80;;;3.50;;
5058;SDS011;2548;52.050;11.036;2023-03-20T01:15:48;3.60;;;3.30;;
5058;SDS011;2548;52.050;11.036;2023-03-20T01:18:16;4.10;;;3.72;;
5058;SDS011;2548;52.050;11.036;2023-03-20T01:20:50;3.40;;;3.20;;
5058;SDS011;2548;52.050;11.036;2023-03-20T01:23:18;5.88;;;3.00;;
5058;SDS011;2548;52.050;11.036;2023-03-20T01:25:47;3.65;;;3.38;;
5058;SDS011;2548;52.050;11.036;2023-03-20T01:28:16;3.67;;;3.45;;
5058;SDS011;2548;52.050;11.036;2023-03-20T01:30:46;3.35;;;3.15;;
5058;SDS011;2548;52.050;11.036;2023-03-20T01:33:14;3.60;;;3.35;;
5058;SDS011;2548;52.050;11.036;2023-03-20T01:35:46;3.30;;;3.00;;
5058;SDS011;2548;52.050;11.036;2023-03-20T01:38:17;3.58;;;3.38;;
5058;SDS011;2548;52.050;11.036;2023-03-20T01:40:48;4.00;;;3.60;;
5058;SDS011;2548;52.050;11.036;2023-03-20T01:43:21;3.30;;;3.20;;
5058;SDS011;2548;52.050;11.036;2023-03-20T01:45:57;3.42;;;3.22;;
5058;SDS011;2548;52.050;11.036;2023-03-20T01:48:34;3.97;;;3.78;;
5058;SDS011;2548;52.050;11.036;2023-03-20T01:51:22;4.22;;;3.92;;
5058;SDS011;2548;52.050;11.036;2023-03-20T01:53:55;5.60;;;4.40;;
5058;SDS011;2548;52.050;11.036;2023-03-20T01:56:27;4.30;;;4.00;;
5058;SDS011;2548;52.050;11.036;2023-03-20T01:59:00;4.05;;;3.70;;
5058;SDS011;2548;52.050;11.036;2023-03-20T02:01:30;4.70;;;4.30;;
5058;SDS011;2548;52.050;11.036;2023-03-20T02:04:01;4.47;;;4.05;;
5058;SDS011;2548;52.050;11.036;2023-03-20T02:06:41;4.47;;;4.10;;
5058;SDS011;2548;52.050;11.036;2023-03-20T02:09:18;3.58;;;3.38;;
5058;SDS011;2548;52.050;11.036;2023-03-20T02:11:46;4.70;;;4.40;;
5058;SDS011;2548;52.050;11.036;2023-03-20T02:14:17;4.28;;;4.07;;
5058;SDS011;2548;52.050;11.036;2023-03-20T02:17:09;4.85;;;4.55;;
5058;SDS011;2548;52.050;11.036;2023-03-20T02:19:45;4.70;;;4.30;;
5058;SDS011;2548;52.050;11.036;2023-03-20T02:22:36;4.65;;;4.43;;
5058;SDS011;2548;52.050;11.036;2023-03-20T02:25:49;4.50;;;4.20;;
5058;SDS011;2548;52.050;11.036;2023-03-20T02:40:52;5.68;;;5.22;;
5058;SDS011;2548;52.050;11.036;2023-03-20T02:43:29;8.60;;;5.95;;
5058;SDS011;2548;52.050;11.036;2023-03-20T02:46:09;5.72;;;5.22;;
5058;SDS011;2548;52.050;11.036;2023-03-20T02:48:45;6.38;;;5.28;;
5058;SDS011;2548;52.050;11.036;2023-03-20T02:51:21;7.90;;;6.78;;
5058;SDS011;2548;52.050;11.036;2023-03-20T02:53:57;12.13;;;6.97;;
5058;SDS011;2548;52.050;11.036;2023-03-20T02:56:33;10.82;;;8.70;;
5058;SDS011;2548;52.050;11.036;2023-03-20T02:59:14;15.95;;;11.20;;
5058;SDS011;2548;52.050;11.036;2023-03-20T03:01:46;19.67;;;14.27;;
5058;SDS011;2548;52.050;11.036;2023-03-20T03:04:18;23.20;;;15.60;;
5058;SDS011;2548;52.050;11.036;2023-03-20T03:06:51;25.63;;;17.40;;
5058;SDS011;2548;52.050;11.036;2023-03-20T03:09:22;31.15;;;20.35;;
5058;SDS011;2548;52.050;11.036;2023-03-20T03:11:55;41.97;;;25.85;;
5058;SDS011;2548;52.050;11.036;2023-03-20T03:14:29;46.00;;;27.23;;
5058;SDS011;2548;52.050;11.036;2023-03-20T03:17:02;48.28;;;30.77;;
5058;SDS011;2548;52.050;11.036;2023-03-20T03:19:31;63.85;;;32.10;;
5058;SDS011;2548;52.050;11.036;2023-03-20T03:22:02;54.88;;;34.83;;
5058;SDS011;2548;52.050;11.036;2023-03-20T03:24:33;63.42;;;33.30;;
5058;SDS011;2548;52.050;11.036;2023-03-20T03:27:03;57.72;;;32.28;;
5058;SDS011;2548;52.050;11.036;2023-03-20T03:29:36;54.63;;;33.72;;
5058;SDS011;2548;52.050;11.036;2023-03-20T03:32:18;55.63;;;34.67;;
5058;SDS011;2548;52.050;11.036;2023-03-20T03:34:49;66.25;;;35.10;;
5058;SDS011;2548;52.050;11.036;2023-03-20T03:37:19;60.97;;;33.60;;
5058;SDS011;2548;52.050;11.036;2023-03-20T03:39:55;62.13;;;35.70;;
5058;SDS011;2548;52.050;11.036;2023-03-20T03:42:31;72.53;;;36.55;;
5058;SDS011;2548;52.050;11.036;2023-03-20T03:45:04;66.57;;;33.75;;
5058;SDS011;2548;52.050;11.036;2023-03-20T03:47:38;66.65;;;36.25;;
5058;SDS011;2548;52.050;11.036;2023-03-20T03:50:10;59.10;;;33.53;;
5058;SDS011;2548;52.050;11.036;2023-03-20T03:52:41;61.90;;;35.08;;
5058;SDS011;2548;52.050;11.036;2023-03-20T03:55:14;68.75;;;31.10;;
5058;SDS011;2548;52.050;11.036;2023-03-20T03:58:06;63.40;;;32.97;;
5058;SDS011;2548;52.050;11.036;2023-03-20T04:00:38;74.00;;;34.83;;
5058;SDS011;2548;52.050;11.036;2023-03-20T04:03:09;72.72;;;34.85;;
5058;SDS011;2548;52.050;11.036;2023-03-20T04:05:40;74.55;;;36.50;;
5058;SDS011;2548;52.050;11.036;2023-03-20T04:08:10;79.47;;;36.42;;
5058;SDS011;2548;52.050;11.036;2023-03-20T04:10:41;81.72;;;37.42;;
5058;SDS011;2548;52.050;11.036;2023-03-20T04:13:08;84.53;;;40.53;;
5058;SDS011;2548;52.050;11.036;2023-03-20T04:15:36;78.70;;;39.05;;
5058;SDS011;2548;52.050;11.036;2023-03-20T04:18:05;70.72;;;34.85;;
5058;SDS011;2548;52.050;11.036;2023-03-20T04:20:34;78.72;;;36.83;;
5058;SDS011;2548;52.050;11.036;2023-03-20T04:23:04;93.80;;;37.50;;
5058;SDS011;2548;52.050;11.036;2023-03-20T04:25:32;68.00;;;36.72;;
5058;SDS011;2548;52.050;11.036;2023-03-20T04:28:01;80.60;;;37.65;;
5058;SDS011;2548;52.050;11.036;2023-03-20T04:30:52;94.78;;;40.00;;
5058;SDS011;2548;52.050;11.036;2023-03-20T04:33:36;90.57;;;38.50;;
5058;SDS011;2548;52.050;11.036;2023-03-20T04:36:30;88.78;;;38.38;;
5058;SDS011;2548;52.050;11.036;2023-03-20T04:38:57;75.80;;;37.05;;
5058;SDS011;2548;52.050;11.036;2023-03-20T04:41:25;94.65;;;40.45;;
5058;SDS011;2548;52.050;11.036;2023-03-20T04:43:57;85.13;;;38.33;;
5058;SDS011;2548;52.050;11.036;2023-03-20T04:46:25;82.45;;;38.28;;
5058;SDS011;2548;52.050;11.036;2023-03-20T04:48:53;88.38;;;39.88;;
5058;SDS011;2548;52.050;11.036;2023-03-20T04:51:21;84.18;;;38.38;;
5058;SDS011;2548;52.050;11.036;2023-03-20T04:53:51;79.10;;;36.15;;
5058;SDS011;2548;52.050;11.036;2023-03-20T04:56:19;72.63;;;37.30;;
5058;SDS011;2548;52.050;11.036;2023-03-20T04:58:48;83.40;;;39.55;;
5058;SDS011;2548;52.050;11.036;2023-03-20T05:01:19;81.28;;;39.25;;
5058;SDS011;2548;52.050;11.036;2023-03-20T05:03:48;76.38;;;35.20;;
5058;SDS011;2548;52.050;11.036;2023-03-20T05:06:16;78.18;;;37.00;;
5058;SDS011;2548;52.050;11.036;2023-03-20T05:08:44;76.10;;;35.25;;
5058;SDS011;2548;52.050;11.036;2023-03-20T05:11:11;77.80;;;37.17;;
5058;SDS011;2548;52.050;11.036;2023-03-20T05:13:58;84.10;;;35.28;;
5058;SDS011;2548;52.050;11.036;2023-03-20T05:16:56;72.97;;;37.88;;
5058;SDS011;2548;52.050;11.036;2023-03-20T05:19:46;77.20;;;35.10;;
5058;SDS011;2548;52.050;11.036;2023-03-20T05:22:25;73.32;;;36.05;;
5058;SDS011;2548;52.050;11.036;2023-03-20T05:25:06;79.07;;;37.33;;
5058;SDS011;2548;52.050;11.036;2023-03-20T05:28:03;85.95;;;35.80;;
5058;SDS011;2548;52.050;11.036;2023-03-20T05:30:49;94.10;;;37.15;;
5058;SDS011;2548;52.050;11.036;2023-03-20T05:33:36;91.45;;;35.47;;
5058;SDS011;2548;52.050;11.036;2023-03-20T05:36:22;85.70;;;35.45;;
5058;SDS011;2548;52.050;11.036;2023-03-20T05:38:50;89.90;;;36.30;;
5058;SDS011;2548;52.050;11.036;2023-03-20T05:41:25;82.13;;;36.70;;
5058;SDS011;2548;52.050;11.036;2023-03-20T05:44:11;79.15;;;35.55;;
5058;SDS011;2548;52.050;11.036;2023-03-20T05:46:50;78.55;;;35.10;;
5058;SDS011;2548;52.050;11.036;2023-03-20T05:49:48;74.72;;;33.13;;
5058;SDS011;2548;52.050;11.036;2023-03-20T05:52:23;75.40;;;36.38;;
5058;SDS011;2548;52.050;11.036;2023-03-20T05:55:09;76.57;;;36.47;;
5058;SDS011;2548;52.050;11.036;2023-03-20T05:57:50;69.03;;;34.22;;
5058;SDS011;2548;52.050;11.036;2023-03-20T06:00:41;63.30;;;30.35;;
5058;SDS011;2548;52.050;11.036;2023-03-20T06:03:34;59.95;;;28.45;;
5058;SDS011;2548;52.050;11.036;2023-03-20T06:06:13;58.08;;;28.70;;
5058;SDS011;2548;52.050;11.036;2023-03-20T06:08:57;53.08;;;27.52;;
5058;SDS011;2548;52.050;11.036;2023-03-20T06:11:25;53.45;;;27.90;;
5058;SDS011;2548;52.050;11.036;2023-03-20T06:13:52;56.67;;;27.05;;
5058;SDS011;2548;52.050;11.036;2023-03-20T06:16:22;68.80;;;30.30;;
5058;SDS011;2548;52.050;11.036;2023-03-20T06:18:50;58.95;;;28.80;;
5058;SDS011;2548;52.050;11.036;2023-03-20T06:21:19;57.25;;;27.20;;
5058;SDS011;2548;52.050;11.036;2023-03-20T06:23:47;54.03;;;26.15;;
5058;SDS011;2548;52.050;11.036;2023-03-20T06:26:16;60.70;;;30.25;;
5058;SDS011;2548;52.050;11.036;2023-03-20T06:28:56;57.92;;;26.27;;
5058;SDS011;2548;52.050;11.036;2023-03-20T06:31:24;57.00;;;27.20;;
5058;SDS011;2548;52.050;11.036;2023-03-20T06:33:55;56.05;;;28.35;;
5058;SDS011;2548;52.050;11.036;2023-03-20T06:36:40;45.92;;;24.60;;
5058;SDS011;2548;52.050;11.036;2023-03-20T06:39:22;49.20;;;27.77;;
5058;SDS011;2548;52.050;11.036;2023-03-20T06:41:52;49.92;;;27.08;;
5058;SDS011;2548;52.050;11.036;2023-03-20T06:44:25;57.28;;;25.20;;
5058;SDS011;2548;52.050;11.036;2023-03-20T06:47:16;47.78;;;24.05;;
5058;SDS011;2548;52.050;11.036;2023-03-20T06:49:59;49.20;;;26.83;;
5058;SDS011;2548;52.050;11.036;2023-03-20T06:52:30;53.28;;;25.73;;
5058;SDS011;2548;52.050;11.036;2023-03-20T06:55:17;46.17;;;25.05;;
5058;SDS011;2548;52.050;11.036;2023-03-20T06:57:46;47.00;;;26.35;;
5058;SDS011;2548;52.050;11.036;2023-03-20T07:00:16;40.92;;;23.70;;
5058;SDS011;2548;52.050;11.036;2023-03-20T07:02:49;42.13;;;23.95;;
5058;SDS011;2548;52.050;11.036;2023-03-20T07:05:18;52.30;;;24.92;;
5058;SDS011;2548;52.050;11.036;2023-03-20T07:07:47;39.08;;;23.70;;
5058;SDS011;2548;52.050;11.036;2023-03-20T07:10:15;37.25;;;22.25;;
5058;SDS011;2548;52.050;11.036;2023-03-20T07:12:48;47.45;;;23.58;;
5058;SDS011;2548;52.050;11.036;2023-03-20T07:15:18;42.35;;;23.00;;
5058;SDS011;2548;52.050;11.036;2023-03-20T07:17:47;40.00;;;22.13;;
5058;SDS011;2548;52.050;11.036;2023-03-20T07:20:15;38.80;;;22.80;;
5058;SDS011;2548;52.050;11.036;2023-03-20T07:22:56;37.20;;;22.33;;
5058;SDS011;2548;52.050;11.036;2023-03-20T07:25:29;35.65;;;21.35;;
5058;SDS011;2548;52.050;11.036;2023-03-20T07:27:58;37.95;;;22.83;;
5058;SDS011;2548;52.050;11.036;2023-03-20T07:30:27;40.17;;;21.63;;
5058;SDS011;2548;52.050;11.036;2023-03-20T07:32:55;39.80;;;22.27;;
5058;SDS011;2548;52.050;11.036;2023-03-20T07:35:27;42.20;;;22.40;;
5058;SDS011;2548;52.050;11.036;2023-03-20T07:37:56;41.20;;;21.02;;
5058;SDS011;2548;52.050;11.036;2023-03-20T07:40:25;44.75;;;22.13;;
5058;SDS011;2548;52.050;11.036;2023-03-20T07:43:00;37.55;;;21.00;;
5058;SDS011;2548;52.050;11.036;2023-03-20T07:45:51;37.17;;;20.10;;
5058;SDS011;2548;52.050;11.036;2023-03-20T07:48:19;38.00;;;21.90;;
5058;SDS011;2548;52.050;11.036;2023-03-20T07:50:49;37.03;;;20.55;;
5058;SDS011;2548;52.050;11.036;2023-03-20T07:53:24;34.70;;;21.38;;
5058;SDS011;2548;52.050;11.036;2023-03-20T07:55:51;40.78;;;21.85;;
5058;SDS011;2548;52.050;11.036;2023-03-20T07:58:19;36.42;;;20.90;;
5058;SDS011;2548;52.050;11.036;2023-03-20T08:00:56;37.55;;;21.40;;
5058;SDS011;2548;52.050;11.036;2023-03-20T08:03:27;36.63;;;21.45;;
5058;SDS011;2548;52.050;11.036;2023-03-20T08:05:55;42.63;;;20.85;;
5058;SDS011;2548;52.050;11.036;2023-03-20T08:08:24;42.55;;;21.98;;
5058;SDS011;2548;52.050;11.036;2023-03-20T08:10:51;42.63;;;21.58;;
5058;SDS011;2548;52.050;11.036;2023-03-20T08:13:19;41.40;;;21.08;;
5058;SDS011;2548;52.050;11.036;2023-03-20T08:15:47;48.38;;;22.33;;
5058;SDS011;2548;52.050;11.036;2023-03-20T08:18:21;50.75;;;27.30;;
5058;SDS011;2548;52.050;11.036;2023-03-20T08:20:48;64.15;;;28.63;;
5058;SDS011;2548;52.050;11.036;2023-03-20T08:23:18;39.35;;;21.60;;
5058;SDS011;2548;52.050;11.036;2023-03-20T08:25:51;44.08;;;23.13;;
5058;SDS011;2548;52.050;11.036;2023-03-20T08:28:19;41.30;;;22.50;;
5058;SDS011;2548;52.050;11.036;2023-03-20T08:30:47;36.38;;;21.23;;
5058;SDS011;2548;52.050;11.036;2023-03-20T08:33:21;46.00;;;22.40;;
5058;SDS011;2548;52.050;11.036;2023-03-20T08:35:59;50.05;;;24.33;;
5058;SDS011;2548;52.050;11.036;2023-03-20T08:38:27;49.95;;;23.80;;
5058;SDS011;2548;52.050;11.036;2023-03-20T08:40:59;40.42;;;21.15;;
5058;SDS011;2548;52.050;11.036;2023-03-20T08:43:27;46.67;;;22.58;;
5058;SDS011;2548;52.050;11.036;2023-03-20T08:45:55;42.50;;;22.40;;
5058;SDS011;2548;52.050;11.036;2023-03-20T08:48:23;42.83;;;22.42;;
5058;SDS011;2548;52.050;11.036;2023-03-20T08:50:56;46.33;;;22.05;;
5058;SDS011;2548;52.050;11.036;2023-03-20T08:53:24;40.70;;;23.20;;
5058;SDS011;2548;52.050;11.036;2023-03-20T08:55:52;47.78;;;24.15;;
5058;SDS011;2548;52.050;11.036;2023-03-20T08:58:22;49.30;;;21.80;;
5058;SDS011;2548;52.050;11.036;2023-03-20T09:00:50;44.10;;;20.88;;
5058;SDS011;2548;52.050;11.036;2023-03-20T09:03:18;44.20;;;25.17;;
5058;SDS011;2548;52.050;11.036;2023-03-20T09:05:47;45.78;;;24.85;;
5058;SDS011;2548;52.050;11.036;2023-03-20T09:08:16;37.38;;;21.23;;
5058;SDS011;2548;52.050;11.036;2023-03-20T09:10:43;43.50;;;22.88;;
5058;SDS011;2548;52.050;11.036;2023-03-20T09:13:13;40.35;;;23.00;;
5058;SDS011;2548;52.050;11.036;2023-03-20T09:15:42;42.75;;;22.55;;
5058;SDS011;2548;52.050;11.036;2023-03-20T09:18:10;37.65;;;20.85;;
5058;SDS011;2548;52.050;11.036;2023-03-20T09:20:37;43.00;;;22.88;;
5058;SDS011;2548;52.050;11.036;2023-03-20T09:23:22;43.30;;;19.15;;
5058;SDS011;2548;52.050;11.036;2023-03-20T09:25:49;42.63;;;20.60;;
5058;SDS011;2548;52.050;11.036;2023-03-20T09:28:20;33.38;;;19.80;;
5058;SDS011;2548;52.050;11.036;2023-03-20T09:30:53;53.22;;;20.95;;
5058;SDS011;2548;52.050;11.036;2023-03-20T09:33:21;39.50;;;21.55;;
5058;SDS011;2548;52.050;11.036;2023-03-20T09:35:49;43.83;;;22.38;;
5058;SDS011;2548;52.050;11.036;2023-03-20T09:38:17;37.75;;;21.02;;
5058;SDS011;2548;52.050;11.036;2023-03-20T09:40:52;42.03;;;23.67;;
5058;SDS011;2548;52.050;11.036;2023-03-20T09:43:25;45.72;;;23.20;;
5058;SDS011;2548;52.050;11.036;2023-03-20T09:46:08;46.00;;;21.80;;
5058;SDS011;2548;52.050;11.036;2023-03-20T09:48:51;34.17;;;19.73;;
5058;SDS011;2548;52.050;11.036;2023-03-20T09:51:25;42.63;;;20.63;;
5058;SDS011;2548;52.050;11.036;2023-03-20T09:53:58;39.30;;;19.88;;
5058;SDS011;2548;52.050;11.036;2023-03-20T09:56:30;37.25;;;19.75;;
5058;SDS011;2548;52.050;11.036;2023-03-20T09:58:58;44.90;;;20.90;;
5058;SDS011;2548;52.050;11.036;2023-03-20T10:01:30;34.40;;;19.45;;
5058;SDS011;2548;52.050;11.036;2023-03-20T10:04:06;41.75;;;19.75;;
5058;SDS011;2548;52.050;11.036;2023-03-20T10:06:39;40.85;;;20.92;;
5058;SDS011;2548;52.050;11.036;2023-03-20T10:09:13;39.92;;;19.77;;
5058;SDS011;2548;52.050;11.036;2023-03-20T10:11:55;33.15;;;19.05;;
5058;SDS011;2548;52.050;11.036;2023-03-20T10:14:55;36.40;;;19.38;;
5058;SDS011;2548;52.050;11.036;2023-03-20T10:17:36;34.80;;;18.17;;
5058;SDS011;2548;52.050;11.036;2023-03-20T10:20:20;30.30;;;19.15;;
5058;SDS011;2548;52.050;11.036;2023-03-20T10:23:03;35.78;;;18.15;;
5058;SDS011;2548;52.050;11.036;2023-03-20T10:25:42;33.50;;;20.05;;
5058;SDS011;2548;52.050;11.036;2023-03-20T10:28:15;40.17;;;22.80;;
5058;SDS011;2548;52.050;11.036;2023-03-20T10:30:55;40.47;;;23.38;;
5058;SDS011;2548;52.050;11.036;2023-03-20T10:33:39;41.92;;;20.83;;
5058;SDS011;2548;52.050;11.036;2023-03-20T10:36:23;42.13;;;23.10;;
5058;SDS011;2548;52.050;11.036;2023-03-20T10:39:04;44.95;;;22.38;;
5058;SDS011;2548;52.050;11.036;2023-03-20T10:41:36;40.78;;;22.75;;
5058;SDS011;2548;52.050;11.036;2023-03-20T10:44:08;43.42;;;23.02;;
5058;SDS011;2548;52.050;11.036;2023-03-20T10:46:47;43.05;;;22.63;;
5058;SDS011;2548;52.050;11.036;2023-03-20T10:49:26;37.90;;;21.05;;
5058;SDS011;2548;52.050;11.036;2023-03-20T10:52:01;37.95;;;21.67;;
5058;SDS011;2548;52.050;11.036;2023-03-20T10:54:34;41.15;;;23.13;;
5058;SDS011;2548;52.050;11.036;2023-03-20T10:57:11;39.75;;;23.88;;
5058;SDS011;2548;52.050;11.036;2023-03-20T11:00:00;43.60;;;22.42;;
5058;SDS011;2548;52.050;11.036;2023-03-20T11:02:37;34.22;;;22.60;;
5058;SDS011;2548;52.050;11.036;2023-03-20T11:05:09;37.83;;;22.33;;
5058;SDS011;2548;52.050;11.036;2023-03-20T11:07:48;44.42;;;24.95;;
5058;SDS011;2548;52.050;11.036;2023-03-20T11:10:24;34.10;;;20.75;;
5058;SDS011;2548;52.050;11.036;2023-03-20T11:12:52;37.80;;;23.15;;
5058;SDS011;2548;52.050;11.036;2023-03-20T11:15:21;36.45;;;22.33;;
5058;SDS011;2548;52.050;11.036;2023-03-20T11:17:54;37.92;;;23.77;;
5058;SDS011;2548;52.050;11.036;2023-03-20T11:20:25;41.92;;;23.48;;
5058;SDS011;2548;52.050;11.036;2023-03-20T11:22:58;35.92;;;22.52;;
5058;SDS011;2548;52.050;11.036;2023-03-20T11:25:29;49.25;;;24.70;;
5058;SDS011;2548;52.050;11.036;2023-03-20T11:30:56;44.25;;;24.70;;
5058;SDS011;2548;52.050;11.036;2023-03-20T11:33:26;36.83;;;21.13;;
5058;SDS011;2548;52.050;11.036;2023-03-20T11:35:59;42.63;;;24.05;;
5058;SDS011;2548;52.050;11.036;2023-03-20T11:38:27;36.25;;;22.35;;
5058;SDS011;2548;52.050;11.036;2023-03-20T11:40:57;41.28;;;25.10;;
5058;SDS011;2548;52.050;11.036;2023-03-20T11:43:25;61.05;;;23.92;;
5058;SDS011;2548;52.050;11.036;2023-03-20T11:45:54;45.22;;;24.30;;
5058;SDS011;2548;52.050;11.036;2023-03-20T11:48:24;50.17;;;25.75;;
5058;SDS011;2548;52.050;11.036;2023-03-20T11:51:12;46.90;;;26.40;;
5058;SDS011;2548;52.050;11.036;2023-03-20T11:53:56;45.28;;;27.98;;
5058;SDS011;2548;52.050;11.036;2023-03-20T11:56:27;48.95;;;25.58;;
5058;SDS011;2548;52.050;11.036;2023-03-20T11:58:57;51.95;;;29.00;;
5058;SDS011;2548;52.050;11.036;2023-03-20T12:01:29;45.30;;;28.27;;
5058;SDS011;2548;52.050;11.036;2023-03-20T12:04:06;51.03;;;27.95;;
5058;SDS011;2548;52.050;11.036;2023-03-20T12:06:43;38.15;;;24.70;;
5058;SDS011;2548;52.050;11.036;2023-03-20T12:09:22;47.75;;;30.55;;
5058;SDS011;2548;52.050;11.036;2023-03-20T12:12:02;53.03;;;34.13;;
5058;SDS011;2548;52.050;11.036;2023-03-20T12:14:36;38.17;;;27.30;;
5058;SDS011;2548;52.050;11.036;2023-03-20T12:20:11;40.30;;;25.98;;
5058;SDS011;2548;52.050;11.036;2023-03-20T12:22:49;33.20;;;22.25;;
5058;SDS011;2548;52.050;11.036;2023-03-20T12:25:21;28.23;;;18.67;;
5058;SDS011;2548;52.050;11.036;2023-03-20T12:27:54;23.17;;;16.40;;
5058;SDS011;2548;52.050;11.036;2023-03-20T12:30:29;21.65;;;15.98;;
5058;SDS011;2548;52.050;11.036;2023-03-20T12:33:10;36.45;;;15.95;;
5058;SDS011;2548;52.050;11.036;2023-03-20T12:35:43;29.70;;;16.50;;
5058;SDS011;2548;52.050;11.036;2023-03-20T12:38:17;26.02;;;15.32;;
5058;SDS011;2548;52.050;11.036;2023-03-20T12:40:52;19.38;;;14.00;;
5058;SDS011;2548;52.050;11.036;2023-03-20T12:43:34;20.10;;;13.77;;
5058;SDS011;2548;52.050;11.036;2023-03-20T12:46:10;24.58;;;15.50;;
5058;SDS011;2548;52.050;11.036;2023-03-20T12:48:58;20.40;;;15.65;;
5058;SDS011;2548;52.050;11.036;2023-03-20T12:51:34;24.52;;;15.45;;
5058;SDS011;2548;52.050;11.036;2023-03-20T12:54:22;24.60;;;16.05;;
5058;SDS011;2548;52.050;11.036;2023-03-20T12:57:06;22.58;;;16.30;;
5058;SDS011;2548;52.050;11.036;2023-03-20T12:59:52;21.73;;;15.32;;
5058;SDS011;2548;52.050;11.036;2023-03-20T13:02:42;21.80;;;12.57;;
5058;SDS011;2548;52.050;11.036;2023-03-20T13:05:23;20.70;;;14.50;;
5058;SDS011;2548;52.050;11.036;2023-03-20T13:08:02;19.15;;;15.00;;
5058;SDS011;2548;52.050;11.036;2023-03-20T13:10:45;18.92;;;12.23;;
5058;SDS011;2548;52.050;11.036;2023-03-20T13:13:24;17.52;;;14.38;;
5058;SDS011;2548;52.050;11.036;2023-03-20T13:16:09;23.70;;;13.30;;
5058;SDS011;2548;52.050;11.036;2023-03-20T13:18:49;16.08;;;12.18;;
5058;SDS011;2548;52.050;11.036;2023-03-20T13:21:26;19.33;;;12.60;;
5058;SDS011;2548;52.050;11.036;2023-03-20T13:24:04;19.65;;;13.57;;
5058;SDS011;2548;52.050;11.036;2023-03-20T13:26:48;21.70;;;15.45;;
5058;SDS011;2548;52.050;11.036;2023-03-20T13:29:22;17.75;;;13.35;;
5058;SDS011;2548;52.050;11.036;2023-03-20T13:31:57;18.77;;;13.18;;
5058;SDS011;2548;52.050;11.036;2023-03-20T13:34:40;13.80;;;11.95;;
5058;SDS011;2548;52.050;11.036;2023-03-20T13:37:20;17.40;;;12.55;;
5058;SDS011;2548;52.050;11.036;2023-03-20T13:39:59;24.55;;;13.18;;
5058;SDS011;2548;52.050;11.036;2023-03-20T13:42:49;14.48;;;11.95;;
5058;SDS011;2548;52.050;11.036;2023-03-20T13:45:32;14.50;;;11.70;;
5058;SDS011;2548;52.050;11.036;2023-03-20T13:48:04;12.43;;;10.70;;
5058;SDS011;2548;52.050;11.036;2023-03-20T13:50:56;12.48;;;10.35;;
5058;SDS011;2548;52.050;11.036;2023-03-20T13:53:38;15.27;;;12.60;;
5058;SDS011;2548;52.050;11.036;2023-03-20T13:56:31;15.57;;;11.38;;
5058;SDS011;2548;52.050;11.036;2023-03-20T14:02:08;15.35;;;11.27;;
5058;SDS011;2548;52.050;11.036;2023-03-20T14:04:49;14.52;;;11.52;;
5058;SDS011;2548;52.050;11.036;2023-03-20T14:07:28;14.38;;;11.00;;
5058;SDS011;2548;52.050;11.036;2023-03-20T14:10:11;15.55;;;10.30;;
5058;SDS011;2548;52.050;11.036;2023-03-20T14:13:17;13.85;;;10.70;;
5058;SDS011;2548;52.050;11.036;2023-03-20T14:15:50;12.73;;;11.40;;
5058;SDS011;2548;52.050;11.036;2023-03-20T14:18:20;14.73;;;10.90;;
5058;SDS011;2548;52.050;11.036;2023-03-20T14:20:51;19.17;;;9.80;;
5058;SDS011;2548;52.050;11.036;2023-03-20T14:23:27;15.35;;;12.63;;
5058;SDS011;2548;52.050;11.036;2023-03-20T14:26:04;25.80;;;12.05;;
5058;SDS011;2548;52.050;11.036;2023-03-20T14:28:51;17.27;;;12.50;;
5058;SDS011;2548;52.050;11.036;2023-03-20T14:31:27;21.27;;;14.73;;
5058;SDS011;2548;52.050;11.036;2023-03-20T14:33:58;21.17;;;13.70;;
5058;SDS011;2548;52.050;11.036;2023-03-20T14:36:45;14.73;;;11.50;;
5058;SDS011;2548;52.050;11.036;2023-03-20T14:39:35;23.15;;;12.52;;
5058;SDS011;2548;52.050;11.036;2023-03-20T14:42:18;13.27;;;10.25;;
5058;SDS011;2548;52.050;11.036;2023-03-20T14:45:01;16.42;;;11.65;;
5058;SDS011;2548;52.050;11.036;2023-03-20T14:47:57;12.88;;;10.85;;
5058;SDS011;2548;52.050;11.036;2023-03-20T14:50:35;18.45;;;14.32;;
5058;SDS011;2548;52.050;11.036;2023-03-20T14:53:10;13.73;;;11.60;;
5058;SDS011;2548;52.050;11.036;2023-03-20T14:58:42;17.15;;;11.77;;
5058;SDS011;2548;52.050;11.036;2023-03-20T15:01:15;23.45;;;11.27;;
5058;SDS011;2548;52.050;11.036;2023-03-20T15:03:54;16.85;;;11.50;;
5058;SDS011;2548;52.050;11.036;2023-03-20T15:06:25;20.33;;;11.38;;
5058;SDS011;2548;52.050;11.036;2023-03-20T15:08:54;15.35;;;9.13;;
5058;SDS011;2548;52.050;11.036;2023-03-20T15:11:25;12.70;;;9.45;;
5058;SDS011;2548;52.050;11.036;2023-03-20T15:13:53;19.40;;;9.25;;
5058;SDS011;2548;52.050;11.036;2023-03-20T15:16:25;9.85;;;8.23;;
5058;SDS011;2548;52.050;11.036;2023-03-20T15:18:55;14.80;;;8.32;;
5058;SDS011;2548;52.050;11.036;2023-03-20T15:21:26;9.57;;;8.40;;
5058;SDS011;2548;52.050;11.036;2023-03-20T15:24:02;14.00;;;9.02;;
5058;SDS011;2548;52.050;11.036;2023-03-20T15:26:31;11.63;;;7.70;;
5058;SDS011;2548;52.050;11.036;2023-03-20T15:29:04;9.65;;;8.15;;
5058;SDS011;2548;52.050;11.036;2023-03-20T15:31:34;12.68;;;7.97;;
5058;SDS011;2548;52.050;11.036;2023-03-20T15:34:06;12.73;;;8.80;;
5058;SDS011;2548;52.050;11.036;2023-03-20T15:36:35;12.52;;;9.68;;
5058;SDS011;2548;52.050;11.036;2023-03-20T15:39:11;9.30;;;8.35;;
5058;SDS011;2548;52.050;11.036;2023-03-20T15:41:43;11.20;;;9.07;;
5058;SDS011;2548;52.050;11.036;2023-03-20T15:44:16;8.57;;;7.78;;
5058;SDS011;2548;52.050;11.036;2023-03-20T15:46:52;10.25;;;7.90;;
5058;SDS011;2548;52.050;11.036;2023-03-20T15:49:26;9.98;;;8.70;;